Time;durP1;ratioP1;P1;durP2;ratioP2;P2;SDS_P1;SDS_P2;PMS_P1;PMS_P2;Temp;Humidity;BMP_temperature;BMP_pressure;BME280_temperature;BME280_humidity;BME280_pressure;Samples;Min_cycle;Max_cycle;Signal;HPM_P1;HPM_P2
2022/12/15 00:43:10;;;;;;;32.22;14.27;;;;;;;-5.44;69.92;99407.72;10423773;28;20051;-79
2022/12/15 00:48:15;;;;;;;28.63;12.68;;;;;;;-5.59;70.05;99407.34;10436221;28;20045;-79
2022/12/15 01:20:19;;;;;;;36.83;14.52;;;;;;;-5.60;70.13;99427.41;10456864;28;20067;-80
2022/12/15 01:25:24;;;;;;;33.55;14.55;;;;;;;-5.43;69.18;99432.13;10449482;28;20566;-80
2022/12/15 01:30:27;;;;;;;22.10;10.43;;;;;;;-5.50;69.45;99434.09;10465514;28;20060;-80
2022/12/15 01:35:32;;;;;;;24.75;13.07;;;;;;;-5.30;69.17;99437.84;10462297;28;20045;-79
2022/12/15 01:40:48;;;;;;;31.40;14.85;;;;;;;-5.27;68.84;99441.22;10475218;28;20120;-79
2022/12/15 01:46:01;;;;;;;32.33;14.13;;;;;;;-5.48;69.09;99458.47;10474619;28;20037;-79
2022/12/15 01:51:10;;;;;;;32.25;15.23;;;;;;;-5.47;69.26;99456.69;10458329;28;20136;-78
2022/12/15 01:56:13;;;;;;;38.72;16.63;;;;;;;-5.55;69.27;99449.06;10433543;28;20084;-79
2022/12/15 02:01:17;;;;;;;35.15;15.48;;;;;;;-5.53;69.59;99447.28;10444905;28;20053;-78
2022/12/15 02:06:23;;;;;;;38.10;16.85;;;;;;;-5.41;69.08;99459.97;10434017;28;20069;-79
2022/12/15 02:12:01;;;;;;;29.33;14.15;;;;;;;-5.35;68.82;99472.00;10441303;28;20500;-79
2022/12/15 02:17:17;;;;;;;32.65;15.82;;;;;;;-5.73;70.19;99462.69;10429066;28;20057;-79
2022/12/15 02:22:32;;;;;;;27.88;12.63;;;;;;;-5.53;69.76;99473.44;10430147;28;20042;-79
2022/12/15 02:27:50;;;;;;;35.78;16.27;;;;;;;-5.30;69.18;99474.50;10464985;28;20045;-80
2022/12/15 02:33:03;;;;;;;32.50;16.35;;;;;;;-5.25;68.61;99486.56;10467692;28;20041;-79
2022/12/15 02:38:08;;;;;;;28.52;13.98;;;;;;;-5.12;68.25;99491.44;10458613;28;20041;-79
2022/12/15 02:43:11;;;;;;;37.20;16.67;;;;;;;-5.04;67.97;99487.66;10451048;28;20079;-79
2022/12/15 02:48:26;;;;;;;27.98;14.70;;;;;;;-4.96;67.58;99482.19;10461008;28;20068;-79
2022/12/15 02:53:44;;;;;;;32.95;15.05;;;;;;;-4.92;67.48;99478.53;10437042;28;20076;-79
2022/12/15 02:58:58;;;;;;;32.00;15.57;;;;;;;-5.26;67.80;99484.84;10472047;28;20375;-79
2022/12/15 03:04:06;;;;;;;34.92;15.40;;;;;;;-5.14;67.62;99499.31;10448472;28;20049;-79
2022/12/15 03:09:09;;;;;;;31.77;15.13;;;;;;;-5.06;67.23;99501.72;10464581;28;20048;-78
2022/12/15 03:14:12;;;;;;;39.42;14.73;;;;;;;-5.07;67.19;99510.47;10470654;28;20045;-79
2022/12/15 03:19:17;;;;;;;25.15;11.68;;;;;;;-5.23;67.73;99508.31;10455747;28;20042;-79
2022/12/15 03:24:19;;;;;;;31.20;16.08;;;;;;;-5.23;67.78;99499.63;10446040;28;20065;-80
2022/12/15 03:29:22;;;;;;;30.67;13.52;;;;;;;-5.23;67.88;99505.69;10449373;28;20402;-80
2022/12/15 03:34:26;;;;;;;18.02;8.70;;;;;;;-5.50;68.75;99523.06;10469166;28;20034;-80
2022/12/15 03:39:29;;;;;;;24.45;11.75;;;;;;;-5.63;69.42;99527.78;10486887;28;20068;-80
2022/12/15 03:44:32;;;;;;;31.73;14.45;;;;;;;-5.50;69.71;99524.84;10450991;28;20057;-81
2022/12/15 03:49:36;;;;;;;37.42;15.35;;;;;;;-5.49;69.98;99535.25;10448601;28;20046;-80
2022/12/15 03:54:39;;;;;;;30.40;15.30;;;;;;;-5.18;69.23;99534.38;10475460;28;20045;-80
2022/12/15 03:59:42;;;;;;;33.85;15.38;;;;;;;-5.05;68.43;99545.31;10460689;28;20067;-79
2022/12/15 04:04:47;;;;;;;14.65;5.00;;;;;;;-5.17;68.25;99549.16;10457426;28;20060;-80
2022/12/15 04:09:50;;;;;;;33.20;13.70;;;;;;;-5.25;68.71;99543.31;10444625;28;20041;-79
2022/12/15 04:14:53;;;;;;;30.02;13.63;;;;;;;-5.17;68.22;99541.31;10467414;23;20081;-76
2022/12/15 04:20:09;;;;;;;25.85;12.98;;;;;;;-5.39;69.58;99537.63;10375586;28;20066;-77
2022/12/15 05:34:48;;;;;;;31.85;16.10;;;;;;;-5.08;69.07;99561.13;10411759;28;20475;-77
2022/12/15 05:39:52;;;;;;;29.58;15.40;;;;;;;-5.11;68.66;99562.06;10413948;28;20426;-76
2022/12/15 05:44:55;;;;;;;32.88;16.13;;;;;;;-5.12;68.56;99575.22;10410866;28;20045;-75
2022/12/15 05:49:58;;;;;;;32.13;17.05;;;;;;;-5.20;68.17;99589.41;10411040;28;20046;-76
2022/12/15 05:55:02;;;;;;;33.40;16.38;;;;;;;-5.33;68.06;99602.88;10411140;28;20061;-75
2022/12/15 06:00:06;;;;;;;35.05;14.80;;;;;;;-5.35;69.30;99602.06;10407658;28;20375;-75
2022/12/15 06:05:13;;;;;;;29.27;15.30;;;;;;;-5.22;68.93;99601.66;10411122;28;20049;-76
2022/12/15 06:10:17;;;;;;;35.88;15.85;;;;;;;-5.17;69.07;99613.78;10410645;28;20493;-76
2022/12/15 06:15:20;;;;;;;36.63;13.98;;;;;;;-5.20;68.98;99633.91;10418908;28;20042;-76
2022/12/15 06:20:23;;;;;;;28.30;15.30;;;;;;;-5.14;69.32;99627.63;10418925;28;20091;-76
2022/12/15 06:25:27;;;;;;;20.88;11.13;;;;;;;-5.08;68.72;99630.06;10417570;28;20050;-76
2022/12/15 06:30:30;;;;;;;33.13;14.95;;;;;;;-4.99;68.74;99626.31;10418889;28;20038;-75
2022/12/15 06:35:35;;;;;;;29.00;11.88;;;;;;;-5.08;67.95;99639.69;10418566;28;20049;-76
2022/12/15 06:40:40;;;;;;;27.60;14.63;;;;;;;-5.17;68.21;99637.34;10418045;28;20080;-76
2022/12/15 06:45:48;;;;;;;37.50;17.17;;;;;;;-5.04;68.47;99647.44;10397643;28;20084;-76
2022/12/15 06:50:52;;;;;;;34.78;17.75;;;;;;;-5.03;68.39;99648.28;10418049;28;20129;-76
2022/12/15 06:56:00;;;;;;;37.53;19.45;;;;;;;-5.36;66.87;99647.47;10414500;28;20080;-76
2022/12/15 07:01:06;;;;;;;40.35;20.17;;;;;;;-5.64;67.00;99643.84;10411385;28;20149;-76
2022/12/15 07:06:11;;;;;;;33.67;17.58;;;;;;;-5.60;68.13;99644.59;10419625;28;20045;-76
2022/12/15 07:11:16;;;;;;;52.00;23.10;;;;;;;-5.22;69.71;99658.41;10417393;28;20052;-77
2022/12/15 07:16:20;;;;;;;43.65;26.70;;;;;;;-4.45;69.96;99654.41;10417484;28;20042;-77
2022/12/15 07:21:24;;;;;;;22.25;12.18;;;;;;;-3.90;69.05;99652.63;10416011;28;20061;-76
2022/12/15 07:26:28;;;;;;;21.58;12.88;;;;;;;-3.70;67.38;99659.84;10417004;28;20034;-76
2022/12/15 07:31:31;;;;;;;28.05;15.43;;;;;;;-3.70;65.81;99666.84;10416434;28;20073;-76
2022/12/15 07:36:34;;;;;;;28.20;15.15;;;;;;;-3.63;64.20;99670.97;10415957;28;20052;-76
2022/12/15 07:41:40;;;;;;;31.73;16.48;;;;;;;-4.34;62.19;99689.00;10428138;28;20091;-75
2022/12/15 07:46:45;;;;;;;38.75;17.70;;;;;;;-4.88;63.45;99692.41;10429083;28;20494;-76
2022/12/15 07:51:49;;;;;;;36.65;17.95;;;;;;;-5.12;64.01;99701.78;10415531;28;20049;-75
2022/12/15 07:56:53;;;;;;;36.88;17.85;;;;;;;-5.46;64.55;99722.75;10434794;28;20080;-74
2022/12/15 08:01:57;;;;;;;32.50;17.85;;;;;;;-5.59;65.38;99726.59;10447508;28;20043;-77
2022/12/15 08:07:01;;;;;;;37.17;18.33;;;;;;;-5.52;65.92;99739.47;10458639;28;20050;-77
2022/12/15 08:12:05;;;;;;;39.72;18.77;;;;;;;-5.20;66.28;99740.41;10454839;28;20052;-77
2022/12/15 08:17:08;;;;;;;43.78;21.70;;;;;;;-4.74;65.21;99736.53;10446626;28;20047;-77
2022/12/15 08:22:13;;;;;;;43.17;19.63;;;;;;;-4.48;64.05;99734.91;10451579;28;20060;-77
2022/12/15 08:27:19;;;;;;;39.38;19.33;;;;;;;-4.26;63.05;99735.13;10455841;28;20048;-77
2022/12/15 08:32:23;;;;;;;36.28;19.45;;;;;;;-3.93;62.79;99723.56;10454859;28;20052;-77
2022/12/15 08:37:26;;;;;;;39.15;19.20;;;;;;;-3.53;61.76;99724.91;10448471;28;20105;-77
2022/12/15 08:42:34;;;;;;;36.58;20.05;;;;;;;-3.23;60.67;99730.03;10449616;28;20045;-78
2022/12/15 08:47:37;;;;;;;47.15;22.80;;;;;;;-2.98;59.56;99730.03;10420775;28;20060;-78
2022/12/15 08:52:41;;;;;;;35.15;18.42;;;;;;;-2.64;59.07;99734.91;10445462;28;20536;-78
2022/12/15 08:58:04;;;;;;;42.72;21.88;;;;;;;-2.30;58.17;99747.66;10438774;28;20053;-78
2022/12/15 09:03:07;;;;;;;37.55;19.45;;;;;;;-2.00;57.47;99752.66;10443589;28;20064;-78
2022/12/15 09:08:10;;;;;;;37.42;20.25;;;;;;;-1.49;56.97;99750.59;10435017;28;20071;-78
2022/12/15 09:13:14;;;;;;;32.35;16.80;;;;;;;-1.12;55.63;99756.97;10442094;28;20037;-78
2022/12/15 09:18:17;;;;;;;44.05;19.52;;;;;;;-1.13;55.39;99760.50;10435062;28;20415;-79
2022/12/15 09:23:21;;;;;;;42.15;20.25;;;;;;;-1.90;57.07;99759.25;10444151;28;20071;-78
2022/12/15 09:28:26;;;;;;;36.25;20.02;;;;;;;-1.54;58.10;99760.47;10446823;28;20117;-78
2022/12/15 09:33:29;;;;;;;38.60;20.00;;;;;;;-0.75;56.47;99762.34;10442411;28;20042;-78
2022/12/15 09:38:33;;;;;;;33.65;18.98;;;;;;;-0.19;54.83;99778.31;10419836;28;20063;-78
2022/12/15 09:43:41;;;;;;;35.08;19.20;;;;;;;0.12;54.43;99775.97;10416215;28;20053;-79
2022/12/15 09:48:51;;;;;;;41.13;17.75;;;;;;;0.44;53.27;99778.84;10422793;28;20124;-79
2022/12/15 09:53:54;;;;;;;31.63;15.38;;;;;;;0.34;52.32;99774.94;10423190;28;20056;-79
2022/12/15 09:59:05;;;;;;;26.38;14.88;;;;;;;0.02;53.11;99785.25;10411204;28;20045;-79
2022/12/15 10:04:18;;;;;;;26.80;15.00;;;;;;;0.04;53.14;99780.75;10429140;28;20045;-78
2022/12/15 10:09:26;;;;;;;25.45;14.18;;;;;;;0.04;53.59;99783.38;10425954;28;20048;-78
2022/12/15 10:14:39;;;;;;;28.20;13.85;;;;;;;-0.11;54.34;99784.97;10410173;28;20104;-79
2022/12/15 10:19:49;;;;;;;29.50;16.63;;;;;;;0.86;54.20;99787.38;10427233;28;20087;-78
2022/12/15 10:24:53;;;;;;;31.40;15.98;;;;;;;0.93;51.97;99786.09;10421245;28;20042;-78
2022/12/15 10:30:15;;;;;;;26.75;15.45;;;;;;;0.58;53.02;99799.31;10421590;28;20046;-78
2022/12/15 10:35:21;;;;;;;27.90;16.02;;;;;;;0.02;53.50;99790.53;10425014;28;20045;-79
2022/12/15 10:40:43;;;;;;;23.05;12.00;;;;;;;-0.33;54.29;99798.31;10422101;28;20045;-78
2022/12/15 10:46:12;;;;;;;25.77;14.48;;;;;;;0.51;53.81;99784.69;10420469;28;20056;-78
2022/12/15 10:51:21;;;;;;;28.55;15.05;;;;;;;0.73;53.03;99790.63;10422593;28;20073;-79
2022/12/15 10:56:27;;;;;;;23.88;14.30;;;;;;;0.97;52.38;99791.19;10417074;28;20144;-79
2022/12/15 11:01:36;;;;;;;27.30;15.80;;;;;;;1.59;50.86;99785.31;10418685;28;20045;-79
2022/12/15 11:06:42;;;;;;;27.35;14.43;;;;;;;2.49;48.96;99785.63;10428672;28;20068;-79
2022/12/15 11:17:09;;;;;;;;;;;;;;;2.51;48.41;99788.22;10425694;28;20049;-79
2022/12/15 11:22:19;;;;;;;24.17;14.98;;;;;;;3.40;46.96;99791.84;10423869;28;19976;-80
2022/12/15 11:27:30;;;;;;;21.90;14.20;;;;;;;3.83;46.05;99778.53;10421183;28;20073;-79
2022/12/15 11:32:38;;;;;;;24.02;14.05;;;;;;;3.65;45.79;99779.72;10385850;28;20049;-79
2022/12/15 11:37:49;;;;;;;21.98;13.77;;;;;;;2.83;46.73;99776.63;10408063;28;20041;-79
2022/12/15 11:43:20;;;;;;;22.45;13.75;;;;;;;3.55;45.44;99771.44;10435335;28;20107;-79
2022/12/15 11:48:31;;;;;;;22.15;12.98;;;;;;;3.66;44.79;99768.97;10421997;28;20050;-80
2022/12/15 11:53:50;;;;;;;23.63;13.80;;;;;;;4.24;44.35;99766.25;10490823;23;20047;-80
2022/12/15 11:59:10;;;;;;;27.40;13.93;;;;;;;4.02;43.81;99761.44;10581320;28;20016;-80
2022/12/15 12:04:22;;;;;;;25.58;14.05;;;;;;;3.97;43.03;99761.72;10603189;28;20051;-80
2022/12/15 12:09:30;;;;;;;20.60;13.32;;;;;;;3.88;43.71;99749.88;10580925;28;20117;-77
2022/12/15 12:14:43;;;;;;;23.40;13.57;;;;;;;3.49;44.50;99753.25;10571232;28;20055;-79
2022/12/15 12:19:57;;;;;;;20.70;12.35;;;;;;;3.39;44.36;99752.94;10574031;28;20055;-79
2022/12/15 12:25:03;;;;;;;19.60;11.55;;;;;;;3.30;44.54;99753.50;10579541;28;20047;-79
2022/12/15 12:30:13;;;;;;;20.70;12.13;;;;;;;2.51;46.01;99751.09;10578026;28;20056;-79
2022/12/15 12:35:24;;;;;;;20.98;11.88;;;;;;;3.01;45.39;99749.94;10577947;28;20047;-80
2022/12/15 12:40:52;;;;;;;19.95;12.27;;;;;;;3.91;44.83;99752.34;10548878;28;20044;-79
2022/12/15 12:45:59;;;;;;;20.58;13.35;;;;;;;3.82;43.91;99750.28;10574855;28;20086;-79
2022/12/15 12:51:22;;;;;;;23.25;13.68;;;;;;;4.00;43.32;99750.91;10577863;28;20043;-79
2022/12/15 12:56:33;;;;;;;;;;;;;;;4.15;43.90;99746.44;10598086;28;20054;-79
2022/12/15 13:01:37;;;;;;;20.35;12.73;;;;;;;3.92;43.73;99738.13;10575196;28;19911;-79
2022/12/15 13:07:03;;;;;;;23.05;12.18;;;;;;;3.77;43.63;99730.28;10559850;28;20105;-78
2022/12/15 13:12:35;;;;;;;21.20;12.82;;;;;;;3.82;44.34;99725.53;10542309;28;20048;-78
2022/12/15 13:17:57;;;;;;;20.55;13.18;;;;;;;2.90;45.72;99729.38;10559835;28;20435;-78
2022/12/15 13:23:40;;;;;;;22.73;12.68;;;;;;;2.82;46.40;99729.81;10555021;28;20055;-78
2022/12/15 13:28:50;;;;;;;21.63;12.10;;;;;;;3.32;45.88;99711.81;10552441;28;20043;-78
2022/12/15 13:33:59;;;;;;;22.45;12.20;;;;;;;3.44;45.32;99719.00;10554291;28;20676;-78
2022/12/15 13:39:05;;;;;;;26.45;12.65;;;;;;;3.27;46.09;99713.88;10551053;28;20124;-78
2022/12/15 13:44:15;;;;;;;20.60;10.93;;;;;;;2.83;46.78;99709.47;10522872;28;20614;-78
2022/12/15 13:49:26;;;;;;;18.85;11.57;;;;;;;2.83;47.19;99709.47;10549311;28;20444;-78
2022/12/15 13:54:36;;;;;;;21.20;12.32;;;;;;;2.93;46.91;99713.25;10545651;28;20096;-78
2022/12/15 13:59:44;;;;;;;21.80;11.57;;;;;;;2.59;48.02;99714.41;10562299;28;20057;-78
2022/12/15 14:05:13;;;;;;;38.22;16.58;;;;;;;2.35;48.70;99716.66;10544396;28;20730;-79
2022/12/15 14:10:21;;;;;;;30.80;14.10;;;;;;;2.18;49.22;99704.38;10567091;28;20054;-78
2022/12/15 14:15:27;;;;;;;26.35;12.45;;;;;;;1.98;49.64;99705.50;10534779;28;20039;-78
2022/12/15 14:20:38;;;;;;;25.55;14.20;;;;;;;2.20;49.58;99697.19;10557604;28;20120;-78
2022/12/15 14:25:52;;;;;;;23.95;13.65;;;;;;;2.28;49.21;99699.41;10559553;28;21138;-79
2022/12/15 14:30:59;;;;;;;22.15;13.20;;;;;;;2.27;49.19;99706.50;10561211;28;21254;-78
2022/12/15 14:36:06;;;;;;;27.52;14.18;;;;;;;1.99;49.57;99709.00;10563932;28;20561;-78
2022/12/15 14:41:24;;;;;;;21.88;13.30;;;;;;;1.95;50.15;99711.84;10521153;28;20051;-78
2022/12/15 14:46:29;;;;;;;26.52;14.07;;;;;;;1.66;50.17;99708.16;10553012;28;20458;-78
2022/12/15 14:51:41;;;;;;;28.65;15.68;;;;;;;0.94;51.51;99697.94;10564359;28;20142;-78
2022/12/15 14:56:45;;;;;;;35.92;21.23;;;;;;;0.58;52.79;99707.66;10553939;28;20126;-77
2022/12/15 15:01:52;;;;;;;27.48;16.27;;;;;;;0.25;54.09;99702.28;10557975;28;20051;-78
2022/12/15 15:07:02;;;;;;;;;;;;;;;-0.07;54.62;99701.19;10558583;28;20058;-78
2022/12/15 15:12:12;;;;;;;32.88;16.52;;;;;;;-0.37;55.49;99700.84;10563829;28;19923;-78
2022/12/15 15:17:27;;;;;;;45.92;22.88;;;;;;;-0.57;55.87;99696.50;10542086;28;20119;-78
2022/12/15 15:22:39;;;;;;;45.10;23.40;;;;;;;-0.73;56.64;99689.28;10553281;28;20414;-78
2022/12/15 15:27:43;;;;;;;;;;;;;;;-0.84;57.09;99683.63;10526624;28;20048;-78
2022/12/15 15:32:55;;;;;;;26.60;14.80;;;;;;;-1.00;57.63;99678.19;10551459;28;21211;-78
2022/12/15 15:38:03;;;;;;;30.87;17.00;;;;;;;-1.14;58.20;99680.59;10535895;28;20050;-78
2022/12/15 15:43:11;;;;;;;27.20;16.17;;;;;;;-1.26;58.21;99683.75;10534822;28;20048;-78
2022/12/15 15:48:23;;;;;;;33.08;16.58;;;;;;;-1.22;58.22;99698.50;10550910;28;20043;-79
2022/12/15 15:53:29;;;;;;;39.67;21.35;;;;;;;-1.23;58.30;99699.44;10557134;28;20043;-78
2022/12/15 15:58:33;;;;;;;39.72;23.08;;;;;;;-1.23;58.61;99696.81;10564876;28;20055;-78
2022/12/15 16:03:38;;;;;;;27.45;14.35;;;;;;;-1.23;58.42;99697.66;10550205;28;20067;-78
2022/12/15 16:08:42;;;;;;;32.95;18.20;;;;;;;-1.35;59.02;99702.59;10519994;28;20054;-78
2022/12/15 16:13:46;;;;;;;33.47;17.00;;;;;;;-1.54;60.51;99705.16;10553485;28;20071;-78
2022/12/15 16:18:49;;;;;;;30.20;16.48;;;;;;;-1.59;60.99;99704.47;10556847;28;20043;-78
2022/12/15 16:23:53;;;;;;;42.90;21.88;;;;;;;-1.70;60.95;99710.19;10547869;28;20166;-78
2022/12/15 16:28:58;;;;;;;39.78;21.98;;;;;;;-1.80;62.42;99717.63;10530146;28;20122;-78
2022/12/15 16:34:01;;;;;;;37.17;20.75;;;;;;;-2.01;63.58;99729.00;10553304;28;20048;-78
2022/12/15 16:39:05;;;;;;;41.58;21.95;;;;;;;-2.00;63.84;99726.34;10533336;28;21204;-78
2022/12/15 16:44:12;;;;;;;46.92;23.48;;;;;;;-2.09;64.13;99731.94;10553796;28;20123;-78
2022/12/15 16:49:14;;;;;;;46.30;24.65;;;;;;;-2.26;64.82;99726.47;10556532;28;20101;-78
2022/12/15 16:54:20;;;;;;;55.42;30.20;;;;;;;-2.38;65.16;99727.81;10547379;28;20055;-78
2022/12/15 16:59:26;;;;;;;48.22;23.13;;;;;;;-2.49;65.68;99735.25;10560940;28;20149;-78
2022/12/15 17:04:38;;;;;;;42.38;23.30;;;;;;;-2.56;65.80;99743.34;10546821;28;20043;-78
2022/12/15 17:09:40;;;;;;;42.15;21.65;;;;;;;-2.57;65.79;99757.44;10535631;28;20107;-78
2022/12/15 17:14:45;;;;;;;44.92;23.63;;;;;;;-2.60;66.01;99762.81;10539158;28;20043;-78
2022/12/15 17:19:48;;;;;;;49.67;25.92;;;;;;;-2.59;66.14;99755.78;10535347;28;20049;-78
2022/12/15 17:25:17;;;;;;;48.58;24.67;;;;;;;-2.68;66.36;99766.63;10542643;28;20062;-78
2022/12/15 17:30:40;;;;;;;50.40;24.92;;;;;;;-2.75;66.39;99758.09;10554128;28;20050;-78
2022/12/15 17:35:43;;;;;;;53.70;27.05;;;;;;;-2.74;66.85;99754.56;10545121;28;20055;-79
2022/12/15 17:40:47;;;;;;;50.45;26.92;;;;;;;-2.74;66.89;99762.47;10569424;28;20116;-79
2022/12/15 17:45:54;;;;;;;48.72;23.73;;;;;;;-2.73;66.78;99762.38;10562271;28;20059;-79
2022/12/15 17:50:57;;;;;;;45.83;24.90;;;;;;;-2.91;67.13;99770.91;10544594;28;20666;-79
2022/12/15 17:56:00;;;;;;;47.90;26.10;;;;;;;-2.98;67.39;99782.59;10569947;28;20081;-79
2022/12/15 18:01:05;;;;;;;49.63;24.15;;;;;;;-2.90;67.43;99787.59;10567529;28;20055;-79
2022/12/15 18:06:13;;;;;;;48.60;25.27;;;;;;;-2.99;67.47;99791.34;10567776;28;20100;-79
2022/12/15 18:11:16;;;;;;;50.47;24.17;;;;;;;-3.04;66.99;99799.41;10564315;28;20124;-78
2022/12/15 18:16:21;;;;;;;49.75;24.42;;;;;;;-3.13;67.21;99809.38;10548723;28;20091;-78
2022/12/15 18:21:25;;;;;;;44.28;23.25;;;;;;;-3.26;67.60;99812.44;10562061;28;21415;-79
2022/12/15 18:26:30;;;;;;;37.72;19.48;;;;;;;-3.58;68.18;99817.88;10535190;28;20077;-78
2022/12/15 18:31:34;;;;;;;48.72;22.77;;;;;;;-3.57;68.28;99830.06;10557258;28;20069;-78
2022/12/15 18:36:38;;;;;;;43.10;21.73;;;;;;;-3.56;68.26;99824.78;10558223;28;20077;-78
2022/12/15 18:41:41;;;;;;;46.33;23.50;;;;;;;-3.59;68.09;99824.88;10573869;28;20303;-78
2022/12/15 18:46:45;;;;;;;39.38;20.88;;;;;;;-3.63;68.15;99831.97;10564869;28;20039;-78
2022/12/15 18:51:50;;;;;;;43.40;20.17;;;;;;;-3.65;68.25;99825.94;10556899;28;20066;-78
2022/12/15 18:56:53;;;;;;;44.83;23.35;;;;;;;-3.71;68.33;99828.75;10540635;28;20080;-78
2022/12/15 19:01:58;;;;;;;41.47;20.98;;;;;;;-3.77;68.55;99826.31;10555634;28;20100;-78
2022/12/15 19:07:05;;;;;;;43.13;20.67;;;;;;;-3.79;68.79;99811.50;10564227;28;20044;-78
2022/12/15 19:12:20;;;;;;;42.95;20.25;;;;;;;-3.76;68.27;99787.78;10556800;28;20050;-78
2022/12/15 19:22:46;;;;;;;111.28;38.40;;;;;;;-3.96;68.04;99791.03;10552972;28;20051;-78
2022/12/15 19:27:49;;;;;;;53.13;25.63;;;;;;;-4.15;69.09;99798.59;10555304;28;20416;-78
2022/12/15 19:32:54;;;;;;;43.72;22.65;;;;;;;-4.08;69.07;99800.16;10557883;28;20065;-78
2022/12/15 19:37:58;;;;;;;45.72;21.40;;;;;;;-4.07;68.99;99812.34;10544217;28;20078;-78
2022/12/15 19:43:03;;;;;;;39.38;18.90;;;;;;;-4.18;68.85;99811.81;10562485;28;20083;-78
2022/12/15 19:48:10;;;;;;;44.70;21.52;;;;;;;-4.38;69.46;99815.03;10561256;28;20048;-78
2022/12/15 19:53:21;;;;;;;44.15;21.05;;;;;;;-4.30;69.26;99803.41;10556664;28;20476;-79
2022/12/15 19:58:27;;;;;;;35.37;17.47;;;;;;;-4.30;69.02;99798.16;10544196;28;21150;-78
2022/12/15 20:03:32;;;;;;;43.22;21.63;;;;;;;-4.29;68.97;99812.13;10552446;28;20047;-78
2022/12/15 20:08:39;;;;;;;46.25;21.85;;;;;;;-4.45;69.45;99801.22;10562168;28;20040;-78
2022/12/15 20:13:42;;;;;;;42.15;20.60;;;;;;;-4.43;69.65;99795.94;10544377;28;20119;-77
2022/12/15 20:18:47;;;;;;;47.63;21.35;;;;;;;-4.45;69.64;99803.84;10550313;28;20081;-78
2022/12/15 20:23:54;;;;;;;51.80;22.00;;;;;;;-4.48;69.75;99793.44;10567419;28;20043;-77
2022/12/15 20:28:57;;;;;;;53.50;23.45;;;;;;;-4.60;70.42;99799.91;10556127;28;20097;-78
2022/12/15 20:34:02;;;;;;;51.13;23.35;;;;;;;-4.64;70.20;99810.50;10555389;28;20181;-78
2022/12/15 20:39:12;;;;;;;46.08;22.05;;;;;;;-4.67;70.41;99807.97;10542253;28;20488;-78
2022/12/15 20:44:15;;;;;;;42.63;20.60;;;;;;;-4.62;70.40;99808.72;10542394;28;20043;-78
2022/12/15 20:49:22;;;;;;;39.30;21.05;;;;;;;-4.56;70.31;99812.00;10565650;28;20036;-78
2022/12/15 20:54:25;;;;;;;46.95;21.33;;;;;;;-4.58;70.06;99812.94;10540192;28;20629;-78
2022/12/15 20:59:27;;;;;;;44.92;20.80;;;;;;;-4.61;70.15;99816.50;10551340;28;20471;-77
2022/12/15 21:04:32;;;;;;;49.90;22.88;;;;;;;-4.63;69.90;99822.72;10575518;28;20043;-80
2022/12/15 21:09:35;;;;;;;42.22;19.45;;;;;;;-4.70;69.61;99808.06;10567154;28;21128;-79
2022/12/15 21:14:38;;;;;;;50.33;23.00;;;;;;;-4.78;69.90;99808.25;10566448;28;20069;-80
2022/12/15 21:19:42;;;;;;;52.03;23.48;;;;;;;-4.87;70.01;99805.91;10555645;28;20039;-79
2022/12/15 21:24:45;;;;;;;45.72;20.98;;;;;;;-4.99;69.90;99800.09;10563171;28;20046;-79
2022/12/15 21:29:48;;;;;;;45.90;22.33;;;;;;;-5.12;70.47;99808.31;10567936;28;20097;-80
2022/12/15 21:34:56;;;;;;;53.30;23.30;;;;;;;-5.15;70.75;99801.41;10562082;28;20107;-79
2022/12/15 21:39:59;;;;;;;64.22;27.45;;;;;;;-5.05;70.87;99809.84;10565932;28;20052;-80
2022/12/15 21:45:02;;;;;;;58.60;25.60;;;;;;;-5.01;70.69;99808.91;10573143;28;20066;-80
2022/12/15 21:50:07;;;;;;;55.67;26.30;;;;;;;-5.06;70.62;99821.25;10547840;28;20060;-79
2022/12/15 21:55:14;;;;;;;39.05;19.70;;;;;;;-4.99;70.59;99825.41;10552712;28;20131;-79
2022/12/15 22:00:19;;;;;;;51.50;21.98;;;;;;;-4.99;70.26;99834.16;10546962;28;20055;-79
2022/12/15 22:05:28;;;;;;;44.83;20.05;;;;;;;-4.97;69.74;99841.94;10573958;28;20084;-79
2022/12/15 22:10:31;;;;;;;38.13;18.80;;;;;;;-5.00;69.59;99836.78;10596947;23;20040;-78
2022/12/15 22:15:34;;;;;;;41.33;18.58;;;;;;;-5.05;69.47;99842.13;10488469;28;20045;-78
2022/12/15 22:20:38;;;;;;;46.15;20.13;;;;;;;-5.11;69.27;99838.84;10484116;28;20493;-78
2022/12/15 22:25:41;;;;;;;38.92;18.85;;;;;;;-5.06;69.62;99839.59;10502229;28;20098;-79
2022/12/15 22:30:44;;;;;;;41.90;19.23;;;;;;;-5.09;69.25;99848.38;10501884;28;20515;-77
2022/12/15 22:35:51;;;;;;;43.92;19.63;;;;;;;-5.17;68.92;99852.09;10503468;28;20049;-78
2022/12/15 22:40:58;;;;;;;45.03;22.48;;;;;;;-5.19;69.55;99846.88;10503517;28;20091;-78
2022/12/15 22:46:03;;;;;;;42.10;20.85;;;;;;;-5.20;70.01;99851.25;10504474;28;20052;-78
2022/12/15 22:51:11;;;;;;;38.63;19.33;;;;;;;-5.09;69.95;99858.84;10503080;28;20048;-77
2022/12/15 22:56:24;;;;;;;37.72;18.02;;;;;;;-5.10;69.79;99858.88;10510236;28;20513;-77
2022/12/15 23:01:27;;;;;;;42.65;18.63;;;;;;;-5.15;70.00;99863.41;10509762;28;20120;-77
2022/12/15 23:06:32;;;;;;;44.50;19.77;;;;;;;-5.23;69.45;99869.66;10511167;28;20551;-78
2022/12/15 23:11:38;;;;;;;43.17;20.17;;;;;;;-5.25;69.67;99878.47;10509469;28;20094;-77
2022/12/15 23:16:42;;;;;;;42.83;18.63;;;;;;;-5.23;69.41;99880.16;10510768;28;20048;-78
2022/12/15 23:21:49;;;;;;;40.97;19.20;;;;;;;-5.50;68.65;99892.13;10510576;28;20048;-78
2022/12/15 23:26:52;;;;;;;41.33;18.50;;;;;;;-5.67;68.63;99889.91;10510725;28;20049;-78
2022/12/15 23:31:55;;;;;;;39.58;19.25;;;;;;;-5.72;68.78;99889.13;10526206;28;20063;-78
2022/12/15 23:36:59;;;;;;;45.75;20.38;;;;;;;-5.69;69.02;99882.97;10500221;28;20489;-78
2022/12/15 23:42:04;;;;;;;51.03;22.67;;;;;;;-5.67;69.29;99875.94;10505817;28;20084;-76
2022/12/15 23:47:07;;;;;;;48.08;21.45;;;;;;;-5.58;69.28;99882.72;10509573;28;20051;-79
2022/12/15 23:52:12;;;;;;;46.30;19.35;;;;;;;-5.69;69.21;99882.97;10508611;28;20037;-78
2022/12/15 23:57:16;;;;;;;40.42;19.15;;;;;;;-5.74;69.76;99888.28;10510061;28;20045;-79
